sensor_id;sensor_type;location;lat;lon;timestamp;temperature;humidity
56771;DHT22;42641;59.794;17.616;2023-05-20T00:01:04;9.90;99.90
56771;DHT22;42641;59.794;17.616;2023-05-20T00:03:31;9.80;99.90
56771;DHT22;42641;59.794;17.616;2023-05-20T00:05:57;9.80;99.90
56771;DHT22;42641;59.794;17.616;2023-05-20T00:08:24;9.80;99.90
56771;DHT22;42641;59.794;17.616;2023-05-20T00:10:50;9.80;99.90
56771;DHT22;42641;59.794;17.616;2023-05-20T00:13:16;9.80;99.90
56771;DHT22;42641;59.794;17.616;2023-05-20T00:15:43;9.80;99.90
56771;DHT22;42641;59.794;17.616;2023-05-20T00:18:09;9.80;99.90
56771;DHT22;42641;59.794;17.616;2023-05-20T00:20:36;9.80;99.90
56771;DHT22;42641;59.794;17.616;2023-05-20T00:23:02;9.70;99.90
56771;DHT22;42641;59.794;17.616;2023-05-20T00:25:28;9.70;99.90
56771;DHT22;42641;59.794;17.616;2023-05-20T00:27:56;9.80;99.90
56771;DHT22;42641;59.794;17.616;2023-05-20T00:30:23;9.70;99.90
56771;DHT22;42641;59.794;17.616;2023-05-20T00:32:50;9.80;99.90
56771;DHT22;42641;59.794;17.616;2023-05-20T00:35:16;9.70;99.90
56771;DHT22;42641;59.794;17.616;2023-05-20T00:37:42;9.70;99.90
56771;DHT22;42641;59.794;17.616;2023-05-20T00:40:09;9.70;99.90
56771;DHT22;42641;59.794;17.616;2023-05-20T00:42:36;9.70;99.90
56771;DHT22;42641;59.794;17.616;2023-05-20T00:45:03;9.70;99.90
56771;DHT22;42641;59.794;17.616;2023-05-20T00:47:32;9.70;99.90
56771;DHT22;42641;59.794;17.616;2023-05-20T00:49:59;9.70;99.90
56771;DHT22;42641;59.794;17.616;2023-05-20T00:52:28;9.60;99.90
56771;DHT22;42641;59.794;17.616;2023-05-20T00:54:55;9.60;99.90
56771;DHT22;42641;59.794;17.616;2023-05-20T00:57:23;9.60;99.90
56771;DHT22;42641;59.794;17.616;2023-05-20T00:59:49;9.60;99.90
56771;DHT22;42641;59.794;17.616;2023-05-20T01:02:16;9.60;99.90
56771;DHT22;42641;59.794;17.616;2023-05-20T01:04:42;9.50;99.90
56771;DHT22;42641;59.794;17.616;2023-05-20T01:07:16;9.50;99.90
56771;DHT22;42641;59.794;17.616;2023-05-20T01:09:43;9.50;99.90
56771;DHT22;42641;59.794;17.616;2023-05-20T01:12:26;9.50;99.90
56771;DHT22;42641;59.794;17.616;2023-05-20T01:15:02;9.40;99.90
56771;DHT22;42641;59.794;17.616;2023-05-20T01:17:32;9.40;99.90
56771;DHT22;42641;59.794;17.616;2023-05-20T01:20:01;9.40;99.90
56771;DHT22;42641;59.794;17.616;2023-05-20T01:22:29;9.30;99.90
56771;DHT22;42641;59.794;17.616;2023-05-20T01:24:56;9.30;99.90
56771;DHT22;42641;59.794;17.616;2023-05-20T01:27:22;9.30;99.90
56771;DHT22;42641;59.794;17.616;2023-05-20T01:29:50;9.20;99.90
56771;DHT22;42641;59.794;17.616;2023-05-20T01:32:23;9.20;99.90
56771;DHT22;42641;59.794;17.616;2023-05-20T01:34:51;9.20;99.90
56771;DHT22;42641;59.794;17.616;2023-05-20T01:37:19;9.20;99.90
56771;DHT22;42641;59.794;17.616;2023-05-20T01:39:48;9.20;99.90
56771;DHT22;42641;59.794;17.616;2023-05-20T01:42:16;9.20;99.90
56771;DHT22;42641;59.794;17.616;2023-05-20T01:44:43;9.20;99.90
56771;DHT22;42641;59.794;17.616;2023-05-20T01:47:09;9.10;99.90
56771;DHT22;42641;59.794;17.616;2023-05-20T01:49:36;9.10;99.90
56771;DHT22;42641;59.794;17.616;2023-05-20T01:52:03;9.10;99.90
56771;DHT22;42641;59.794;17.616;2023-05-20T01:54:29;9.10;99.90
56771;DHT22;42641;59.794;17.616;2023-05-20T01:56:56;9.10;99.90
56771;DHT22;42641;59.794;17.616;2023-05-20T01:59:22;9.10;99.90
56771;DHT22;42641;59.794;17.616;2023-05-20T02:01:50;9.10;99.90
56771;DHT22;42641;59.794;17.616;2023-05-20T02:04:16;9.10;99.90
56771;DHT22;42641;59.794;17.616;2023-05-20T02:06:44;9.00;99.90
56771;DHT22;42641;59.794;17.616;2023-05-20T02:09:11;9.00;99.90
56771;DHT22;42641;59.794;17.616;2023-05-20T02:11:37;9.00;99.90
56771;DHT22;42641;59.794;17.616;2023-05-20T02:14:04;8.90;99.90
56771;DHT22;42641;59.794;17.616;2023-05-20T02:16:30;8.90;99.90
56771;DHT22;42641;59.794;17.616;2023-05-20T02:18:57;8.90;99.90
56771;DHT22;42641;59.794;17.616;2023-05-20T02:21:24;8.90;99.90
56771;DHT22;42641;59.794;17.616;2023-05-20T02:23:53;8.90;99.90
56771;DHT22;42641;59.794;17.616;2023-05-20T02:26:19;8.90;99.90
56771;DHT22;42641;59.794;17.616;2023-05-20T02:28:46;8.90;99.90
56771;DHT22;42641;59.794;17.616;2023-05-20T02:31:16;8.90;99.90
56771;DHT22;42641;59.794;17.616;2023-05-20T02:33:43;8.90;99.90
56771;DHT22;42641;59.794;17.616;2023-05-20T02:36:09;8.90;99.90
56771;DHT22;42641;59.794;17.616;2023-05-20T02:38:36;8.90;99.90
56771;DHT22;42641;59.794;17.616;2023-05-20T02:41:02;8.90;99.90
56771;DHT22;42641;59.794;17.616;2023-05-20T02:43:30;8.90;99.90
56771;DHT22;42641;59.794;17.616;2023-05-20T02:46:00;8.90;99.90
56771;DHT22;42641;59.794;17.616;2023-05-20T02:48:26;8.90;99.90
56771;DHT22;42641;59.794;17.616;2023-05-20T02:50:53;8.90;99.90
56771;DHT22;42641;59.794;17.616;2023-05-20T02:53:19;8.90;99.90
56771;DHT22;42641;59.794;17.616;2023-05-20T02:55:46;8.90;99.90
56771;DHT22;42641;59.794;17.616;2023-05-20T02:58:14;8.80;99.90
56771;DHT22;42641;59.794;17.616;2023-05-20T03:00:40;8.80;99.90
56771;DHT22;42641;59.794;17.616;2023-05-20T03:03:07;8.80;99.90
56771;DHT22;42641;59.794;17.616;2023-05-20T03:05:33;8.80;99.90
56771;DHT22;42641;59.794;17.616;2023-05-20T03:08:07;8.80;99.90
56771;DHT22;42641;59.794;17.616;2023-05-20T03:10:38;8.90;99.90
56771;DHT22;42641;59.794;17.616;2023-05-20T03:13:06;8.90;99.90
56771;DHT22;42641;59.794;17.616;2023-05-20T03:15:37;8.90;99.90
56771;DHT22;42641;59.794;17.616;2023-05-20T03:18:04;8.90;99.90
56771;DHT22;42641;59.794;17.616;2023-05-20T03:20:31;8.90;99.90
56771;DHT22;42641;59.794;17.616;2023-05-20T03:23:02;8.90;99.90
56771;DHT22;42641;59.794;17.616;2023-05-20T03:25:29;8.90;99.90
56771;DHT22;42641;59.794;17.616;2023-05-20T03:27:56;8.90;99.90
56771;DHT22;42641;59.794;17.616;2023-05-20T03:30:26;8.90;99.90
56771;DHT22;42641;59.794;17.616;2023-05-20T03:32:55;9.00;99.90
56771;DHT22;42641;59.794;17.616;2023-05-20T03:35:25;9.00;99.90
56771;DHT22;42641;59.794;17.616;2023-05-20T03:37:51;9.00;99.90
56771;DHT22;42641;59.794;17.616;2023-05-20T03:40:20;9.00;99.90
56771;DHT22;42641;59.794;17.616;2023-05-20T03:42:47;9.10;99.90
56771;DHT22;42641;59.794;17.616;2023-05-20T03:45:17;9.20;99.90
56771;DHT22;42641;59.794;17.616;2023-05-20T03:47:56;9.20;99.90
56771;DHT22;42641;59.794;17.616;2023-05-20T03:50:23;9.30;99.90
56771;DHT22;42641;59.794;17.616;2023-05-20T03:52:49;9.30;99.90
56771;DHT22;42641;59.794;17.616;2023-05-20T03:55:18;9.40;99.90
56771;DHT22;42641;59.794;17.616;2023-05-20T03:57:46;9.50;99.90
56771;DHT22;42641;59.794;17.616;2023-05-20T04:00:12;9.50;99.90
56771;DHT22;42641;59.794;17.616;2023-05-20T04:02:45;9.60;99.90
56771;DHT22;42641;59.794;17.616;2023-05-20T04:05:15;9.60;99.90
56771;DHT22;42641;59.794;17.616;2023-05-20T04:07:42;9.70;99.90
56771;DHT22;42641;59.794;17.616;2023-05-20T04:10:09;9.80;99.90
56771;DHT22;42641;59.794;17.616;2023-05-20T04:12:36;9.80;99.90
56771;DHT22;42641;59.794;17.616;2023-05-20T04:15:04;9.90;99.90
56771;DHT22;42641;59.794;17.616;2023-05-20T04:17:41;10.00;99.90
56771;DHT22;42641;59.794;17.616;2023-05-20T04:20:09;10.00;99.90
56771;DHT22;42641;59.794;17.616;2023-05-20T04:22:36;10.10;99.90
56771;DHT22;42641;59.794;17.616;2023-05-20T04:25:05;10.20;99.90
56771;DHT22;42641;59.794;17.616;2023-05-20T04:27:32;10.20;99.90
56771;DHT22;42641;59.794;17.616;2023-05-20T04:29:59;10.30;99.90
56771;DHT22;42641;59.794;17.616;2023-05-20T04:32:29;10.30;99.90
56771;DHT22;42641;59.794;17.616;2023-05-20T04:34:55;10.40;99.90
56771;DHT22;42641;59.794;17.616;2023-05-20T04:37:23;10.40;99.90
56771;DHT22;42641;59.794;17.616;2023-05-20T04:39:50;10.50;99.90
56771;DHT22;42641;59.794;17.616;2023-05-20T04:42:17;10.60;99.90
56771;DHT22;42641;59.794;17.616;2023-05-20T04:44:45;10.60;99.90
56771;DHT22;42641;59.794;17.616;2023-05-20T04:47:11;10.70;99.90
56771;DHT22;42641;59.794;17.616;2023-05-20T04:49:39;10.70;99.90
56771;DHT22;42641;59.794;17.616;2023-05-20T04:52:06;10.80;99.90
56771;DHT22;42641;59.794;17.616;2023-05-20T04:54:33;10.90;99.90
56771;DHT22;42641;59.794;17.616;2023-05-20T04:56:59;11.00;99.90
56771;DHT22;42641;59.794;17.616;2023-05-20T04:59:26;11.10;99.90
56771;DHT22;42641;59.794;17.616;2023-05-20T05:01:53;11.20;99.90
56771;DHT22;42641;59.794;17.616;2023-05-20T05:04:19;11.30;99.90
56771;DHT22;42641;59.794;17.616;2023-05-20T05:06:47;11.40;99.90
56771;DHT22;42641;59.794;17.616;2023-05-20T05:09:14;11.50;99.90
56771;DHT22;42641;59.794;17.616;2023-05-20T05:11:42;11.60;99.90
56771;DHT22;42641;59.794;17.616;2023-05-20T05:14:08;11.70;99.90
56771;DHT22;42641;59.794;17.616;2023-05-20T05:16:35;11.80;99.90
56771;DHT22;42641;59.794;17.616;2023-05-20T05:19:02;11.90;99.90
56771;DHT22;42641;59.794;17.616;2023-05-20T05:21:31;11.90;99.90
56771;DHT22;42641;59.794;17.616;2023-05-20T05:23:58;12.00;99.90
56771;DHT22;42641;59.794;17.616;2023-05-20T05:26:24;12.10;99.90
56771;DHT22;42641;59.794;17.616;2023-05-20T05:28:53;12.20;99.90
56771;DHT22;42641;59.794;17.616;2023-05-20T05:31:20;12.30;99.90
56771;DHT22;42641;59.794;17.616;2023-05-20T05:33:46;12.40;99.90
56771;DHT22;42641;59.794;17.616;2023-05-20T05:36:15;12.50;99.90
56771;DHT22;42641;59.794;17.616;2023-05-20T05:38:42;12.60;99.90
56771;DHT22;42641;59.794;17.616;2023-05-20T05:41:09;12.70;99.90
56771;DHT22;42641;59.794;17.616;2023-05-20T05:43:36;12.80;99.90
56771;DHT22;42641;59.794;17.616;2023-05-20T05:46:04;12.90;99.90
56771;DHT22;42641;59.794;17.616;2023-05-20T05:48:30;13.00;99.90
56771;DHT22;42641;59.794;17.616;2023-05-20T05:50:57;13.10;99.90
56771;DHT22;42641;59.794;17.616;2023-05-20T05:53:24;13.20;99.90
56771;DHT22;42641;59.794;17.616;2023-05-20T05:55:51;13.30;99.90
56771;DHT22;42641;59.794;17.616;2023-05-20T05:58:18;13.40;99.90
56771;DHT22;42641;59.794;17.616;2023-05-20T06:00:45;13.50;99.90
56771;DHT22;42641;59.794;17.616;2023-05-20T06:03:11;13.50;99.90
56771;DHT22;42641;59.794;17.616;2023-05-20T06:05:39;13.60;99.90
56771;DHT22;42641;59.794;17.616;2023-05-20T06:08:06;13.60;99.90
56771;DHT22;42641;59.794;17.616;2023-05-20T06:10:34;13.70;99.90
56771;DHT22;42641;59.794;17.616;2023-05-20T06:13:00;13.80;99.90
56771;DHT22;42641;59.794;17.616;2023-05-20T06:15:27;13.90;99.90
56771;DHT22;42641;59.794;17.616;2023-05-20T06:17:54;14.00;99.90
56771;DHT22;42641;59.794;17.616;2023-05-20T06:20:20;14.00;99.90
56771;DHT22;42641;59.794;17.616;2023-05-20T06:22:47;14.10;99.90
56771;DHT22;42641;59.794;17.616;2023-05-20T06:25:13;14.10;99.90
56771;DHT22;42641;59.794;17.616;2023-05-20T06:27:40;14.20;99.90
56771;DHT22;42641;59.794;17.616;2023-05-20T06:30:09;14.30;99.90
56771;DHT22;42641;59.794;17.616;2023-05-20T06:32:36;14.40;99.90
56771;DHT22;42641;59.794;17.616;2023-05-20T06:35:03;14.40;99.90
56771;DHT22;42641;59.794;17.616;2023-05-20T06:37:29;14.50;99.90
56771;DHT22;42641;59.794;17.616;2023-05-20T06:39:57;14.60;99.90
56771;DHT22;42641;59.794;17.616;2023-05-20T06:42:23;14.70;99.90
56771;DHT22;42641;59.794;17.616;2023-05-20T06:45:02;14.70;99.90
56771;DHT22;42641;59.794;17.616;2023-05-20T06:47:45;14.90;99.90
56771;DHT22;42641;59.794;17.616;2023-05-20T06:50:13;15.00;99.90
56771;DHT22;42641;59.794;17.616;2023-05-20T06:52:39;15.10;99.90
56771;DHT22;42641;59.794;17.616;2023-05-20T06:55:08;15.30;99.90
56771;DHT22;42641;59.794;17.616;2023-05-20T06:57:35;15.40;99.90
56771;DHT22;42641;59.794;17.616;2023-05-20T07:00:02;15.50;99.90
56771;DHT22;42641;59.794;17.616;2023-05-20T07:02:32;15.50;99.90
56771;DHT22;42641;59.794;17.616;2023-05-20T07:04:59;15.60;99.90
56771;DHT22;42641;59.794;17.616;2023-05-20T07:07:25;15.70;99.90
56771;DHT22;42641;59.794;17.616;2023-05-20T07:09:53;15.70;99.90
56771;DHT22;42641;59.794;17.616;2023-05-20T07:12:20;15.80;99.90
56771;DHT22;42641;59.794;17.616;2023-05-20T07:14:46;15.90;99.90
56771;DHT22;42641;59.794;17.616;2023-05-20T07:17:13;16.00;99.90
56771;DHT22;42641;59.794;17.616;2023-05-20T07:19:39;16.10;99.90
56771;DHT22;42641;59.794;17.616;2023-05-20T07:22:06;16.20;99.90
56771;DHT22;42641;59.794;17.616;2023-05-20T07:24:55;16.30;99.90
56771;DHT22;42641;59.794;17.616;2023-05-20T07:27:22;16.20;99.90
56771;DHT22;42641;59.794;17.616;2023-05-20T07:29:48;16.30;99.90
56771;DHT22;42641;59.794;17.616;2023-05-20T07:32:15;16.40;99.90
56771;DHT22;42641;59.794;17.616;2023-05-20T07:34:42;16.50;99.30
56771;DHT22;42641;59.794;17.616;2023-05-20T07:37:08;16.50;98.60
56771;DHT22;42641;59.794;17.616;2023-05-20T07:39:38;16.60;99.50
56771;DHT22;42641;59.794;17.616;2023-05-20T07:42:06;16.70;99.00
56771;DHT22;42641;59.794;17.616;2023-05-20T07:44:33;16.90;99.20
56771;DHT22;42641;59.794;17.616;2023-05-20T07:46:59;17.00;98.60
56771;DHT22;42641;59.794;17.616;2023-05-20T07:49:26;17.00;97.10
56771;DHT22;42641;59.794;17.616;2023-05-20T07:51:53;17.00;97.10
56771;DHT22;42641;59.794;17.616;2023-05-20T07:54:19;17.10;96.30
56771;DHT22;42641;59.794;17.616;2023-05-20T07:56:49;17.10;95.60
56771;DHT22;42641;59.794;17.616;2023-05-20T07:59:15;17.20;95.60
56771;DHT22;42641;59.794;17.616;2023-05-20T08:01:44;17.40;95.70
56771;DHT22;42641;59.794;17.616;2023-05-20T08:04:13;17.50;95.30
56771;DHT22;42641;59.794;17.616;2023-05-20T08:06:39;17.70;95.50
56771;DHT22;42641;59.794;17.616;2023-05-20T08:09:10;17.90;94.80
56771;DHT22;42641;59.794;17.616;2023-05-20T08:11:41;17.90;92.60
56771;DHT22;42641;59.794;17.616;2023-05-20T08:14:07;17.90;94.30
56771;DHT22;42641;59.794;17.616;2023-05-20T08:16:40;18.00;94.50
56771;DHT22;42641;59.794;17.616;2023-05-20T08:19:07;18.10;94.50
56771;DHT22;42641;59.794;17.616;2023-05-20T08:21:33;18.30;94.10
56771;DHT22;42641;59.794;17.616;2023-05-20T08:24:00;18.50;93.30
56771;DHT22;42641;59.794;17.616;2023-05-20T08:26:27;18.30;90.60
56771;DHT22;42641;59.794;17.616;2023-05-20T08:28:54;18.30;91.10
56771;DHT22;42641;59.794;17.616;2023-05-20T08:31:22;18.30;91.90
56771;DHT22;42641;59.794;17.616;2023-05-20T08:33:48;18.40;91.80
56771;DHT22;42641;59.794;17.616;2023-05-20T08:36:15;18.60;91.80
56771;DHT22;42641;59.794;17.616;2023-05-20T08:38:41;18.80;91.50
56771;DHT22;42641;59.794;17.616;2023-05-20T08:41:08;18.80;92.50
56771;DHT22;42641;59.794;17.616;2023-05-20T08:43:36;18.80;94.60
56771;DHT22;42641;59.794;17.616;2023-05-20T08:46:04;19.10;94.10
56771;DHT22;42641;59.794;17.616;2023-05-20T08:48:34;19.30;92.70
56771;DHT22;42641;59.794;17.616;2023-05-20T08:51:02;19.50;93.20
56771;DHT22;42641;59.794;17.616;2023-05-20T08:53:29;19.60;92.00
56771;DHT22;42641;59.794;17.616;2023-05-20T08:55:59;19.60;90.30
56771;DHT22;42641;59.794;17.616;2023-05-20T08:58:29;19.70;91.10
56771;DHT22;42641;59.794;17.616;2023-05-20T09:00:56;19.70;93.80
56771;DHT22;42641;59.794;17.616;2023-05-20T09:03:24;19.90;93.00
56771;DHT22;42641;59.794;17.616;2023-05-20T09:05:52;20.00;94.40
56771;DHT22;42641;59.794;17.616;2023-05-20T09:08:23;20.10;92.90
56771;DHT22;42641;59.794;17.616;2023-05-20T09:10:51;20.20;92.30
56771;DHT22;42641;59.794;17.616;2023-05-20T09:13:18;20.30;93.00
56771;DHT22;42641;59.794;17.616;2023-05-20T09:15:44;20.40;92.40
56771;DHT22;42641;59.794;17.616;2023-05-20T09:18:11;20.50;91.80
56771;DHT22;42641;59.794;17.616;2023-05-20T09:20:38;20.60;91.40
56771;DHT22;42641;59.794;17.616;2023-05-20T09:23:08;20.80;91.60
56771;DHT22;42641;59.794;17.616;2023-05-20T09:25:35;20.90;87.40
56771;DHT22;42641;59.794;17.616;2023-05-20T09:28:04;21.10;87.20
56771;DHT22;42641;59.794;17.616;2023-05-20T09:30:31;21.20;88.50
56771;DHT22;42641;59.794;17.616;2023-05-20T09:33:00;21.30;86.20
56771;DHT22;42641;59.794;17.616;2023-05-20T09:35:28;21.50;87.90
56771;DHT22;42641;59.794;17.616;2023-05-20T09:37:57;21.60;87.40
56771;DHT22;42641;59.794;17.616;2023-05-20T09:40:28;21.70;86.50
56771;DHT22;42641;59.794;17.616;2023-05-20T09:43:05;21.70;86.30
56771;DHT22;42641;59.794;17.616;2023-05-20T09:45:36;21.90;84.00
56771;DHT22;42641;59.794;17.616;2023-05-20T09:48:04;22.00;84.30
56771;DHT22;42641;59.794;17.616;2023-05-20T09:50:34;22.10;84.40
56771;DHT22;42641;59.794;17.616;2023-05-20T09:53:03;22.10;85.90
56771;DHT22;42641;59.794;17.616;2023-05-20T09:55:30;22.20;84.00
56771;DHT22;42641;59.794;17.616;2023-05-20T09:58:00;22.40;83.50
56771;DHT22;42641;59.794;17.616;2023-05-20T10:00:27;22.40;82.60
56771;DHT22;42641;59.794;17.616;2023-05-20T10:02:53;22.50;81.70
56771;DHT22;42641;59.794;17.616;2023-05-20T10:05:29;22.70;81.90
56771;DHT22;42641;59.794;17.616;2023-05-20T10:08:29;22.80;81.20
56771;DHT22;42641;59.794;17.616;2023-05-20T10:11:22;22.90;79.10
56771;DHT22;42641;59.794;17.616;2023-05-20T10:16:57;23.00;77.90
56771;DHT22;42641;59.794;17.616;2023-05-20T10:19:33;23.30;80.50
56771;DHT22;42641;59.794;17.616;2023-05-20T10:22:04;23.40;77.20
56771;DHT22;42641;59.794;17.616;2023-05-20T10:24:38;23.50;76.20
56771;DHT22;42641;59.794;17.616;2023-05-20T10:27:09;23.30;79.90
56771;DHT22;42641;59.794;17.616;2023-05-20T10:29:43;23.40;79.40
56771;DHT22;42641;59.794;17.616;2023-05-20T10:32:10;23.60;78.90
56771;DHT22;42641;59.794;17.616;2023-05-20T10:34:45;23.80;78.30
56771;DHT22;42641;59.794;17.616;2023-05-20T10:37:23;23.80;76.70
56771;DHT22;42641;59.794;17.616;2023-05-20T10:39:51;23.80;76.40
56771;DHT22;42641;59.794;17.616;2023-05-20T10:42:27;24.00;77.00
56771;DHT22;42641;59.794;17.616;2023-05-20T10:44:53;24.00;75.80
56771;DHT22;42641;59.794;17.616;2023-05-20T10:47:20;24.20;76.20
56771;DHT22;42641;59.794;17.616;2023-05-20T10:49:46;24.40;76.00
56771;DHT22;42641;59.794;17.616;2023-05-20T10:52:13;24.50;75.30
56771;DHT22;42641;59.794;17.616;2023-05-20T10:55:17;24.60;73.50
56771;DHT22;42641;59.794;17.616;2023-05-20T10:57:44;24.60;73.60
56771;DHT22;42641;59.794;17.616;2023-05-20T11:00:12;24.80;71.20
56771;DHT22;42641;59.794;17.616;2023-05-20T11:02:39;24.90;73.20
56771;DHT22;42641;59.794;17.616;2023-05-20T11:05:10;25.30;73.90
56771;DHT22;42641;59.794;17.616;2023-05-20T11:07:37;26.00;71.40
56771;DHT22;42641;59.794;17.616;2023-05-20T11:10:07;26.80;69.60
56771;DHT22;42641;59.794;17.616;2023-05-20T11:12:34;27.50;66.70
56771;DHT22;42641;59.794;17.616;2023-05-20T11:15:01;27.60;68.90
56771;DHT22;42641;59.794;17.616;2023-05-20T11:17:29;28.10;64.70
56771;DHT22;42641;59.794;17.616;2023-05-20T11:19:55;28.20;64.70
56771;DHT22;42641;59.794;17.616;2023-05-20T11:22:25;28.40;62.40
56771;DHT22;42641;59.794;17.616;2023-05-20T11:24:52;28.60;60.70
56771;DHT22;42641;59.794;17.616;2023-05-20T11:27:18;28.70;60.70
56771;DHT22;42641;59.794;17.616;2023-05-20T11:29:45;28.80;61.70
56771;DHT22;42641;59.794;17.616;2023-05-20T11:32:14;28.60;61.50
56771;DHT22;42641;59.794;17.616;2023-05-20T11:34:41;28.40;60.60
56771;DHT22;42641;59.794;17.616;2023-05-20T11:37:08;28.30;60.70
56771;DHT22;42641;59.794;17.616;2023-05-20T11:39:36;28.00;58.70
56771;DHT22;42641;59.794;17.616;2023-05-20T11:42:03;27.70;60.20
56771;DHT22;42641;59.794;17.616;2023-05-20T11:44:31;27.60;59.90
56771;DHT22;42641;59.794;17.616;2023-05-20T11:47:01;27.30;61.00
56771;DHT22;42641;59.794;17.616;2023-05-20T11:49:28;26.80;61.20
56771;DHT22;42641;59.794;17.616;2023-05-20T11:51:56;26.40;63.20
56771;DHT22;42641;59.794;17.616;2023-05-20T11:54:23;26.20;64.10
56771;DHT22;42641;59.794;17.616;2023-05-20T11:56:50;26.00;65.40
56771;DHT22;42641;59.794;17.616;2023-05-20T11:59:16;25.50;61.20
56771;DHT22;42641;59.794;17.616;2023-05-20T12:01:43;25.10;63.70
56771;DHT22;42641;59.794;17.616;2023-05-20T12:04:09;24.90;65.40
56771;DHT22;42641;59.794;17.616;2023-05-20T12:06:38;24.70;62.90
56771;DHT22;42641;59.794;17.616;2023-05-20T12:09:06;24.40;63.80
56771;DHT22;42641;59.794;17.616;2023-05-20T12:11:35;24.20;65.10
56771;DHT22;42641;59.794;17.616;2023-05-20T12:14:02;24.10;66.20
56771;DHT22;42641;59.794;17.616;2023-05-20T12:16:31;24.10;66.60
56771;DHT22;42641;59.794;17.616;2023-05-20T12:18:58;23.80;65.50
56771;DHT22;42641;59.794;17.616;2023-05-20T12:21:27;23.70;64.70
56771;DHT22;42641;59.794;17.616;2023-05-20T12:23:54;23.70;64.60
56771;DHT22;42641;59.794;17.616;2023-05-20T12:26:23;24.30;63.20
56771;DHT22;42641;59.794;17.616;2023-05-20T12:28:50;24.90;65.10
56771;DHT22;42641;59.794;17.616;2023-05-20T12:31:17;25.60;64.80
56771;DHT22;42641;59.794;17.616;2023-05-20T12:33:44;26.50;64.90
56771;DHT22;42641;59.794;17.616;2023-05-20T12:36:10;27.30;61.50
56771;DHT22;42641;59.794;17.616;2023-05-20T12:38:38;27.60;58.90
56771;DHT22;42641;59.794;17.616;2023-05-20T12:41:04;28.00;57.90
56771;DHT22;42641;59.794;17.616;2023-05-20T12:43:31;28.30;58.60
56771;DHT22;42641;59.794;17.616;2023-05-20T12:45:57;28.70;59.20
56771;DHT22;42641;59.794;17.616;2023-05-20T12:48:24;29.20;57.30
56771;DHT22;42641;59.794;17.616;2023-05-20T12:50:50;29.50;55.70
56771;DHT22;42641;59.794;17.616;2023-05-20T12:53:17;29.80;55.90
56771;DHT22;42641;59.794;17.616;2023-05-20T12:55:43;29.90;55.70
56771;DHT22;42641;59.794;17.616;2023-05-20T12:58:09;29.80;54.90
56771;DHT22;42641;59.794;17.616;2023-05-20T13:00:36;29.60;54.00
56771;DHT22;42641;59.794;17.616;2023-05-20T13:03:02;29.40;54.70
56771;DHT22;42641;59.794;17.616;2023-05-20T13:05:29;29.50;55.30
56771;DHT22;42641;59.794;17.616;2023-05-20T13:07:55;29.70;55.50
56771;DHT22;42641;59.794;17.616;2023-05-20T13:10:22;29.70;54.20
56771;DHT22;42641;59.794;17.616;2023-05-20T13:12:48;29.40;54.30
56771;DHT22;42641;59.794;17.616;2023-05-20T13:15:15;29.20;55.90
56771;DHT22;42641;59.794;17.616;2023-05-20T13:17:41;29.30;56.70
56771;DHT22;42641;59.794;17.616;2023-05-20T13:20:08;29.00;56.90
56771;DHT22;42641;59.794;17.616;2023-05-20T13:22:36;28.60;54.50
56771;DHT22;42641;59.794;17.616;2023-05-20T13:25:03;28.00;54.40
56771;DHT22;42641;59.794;17.616;2023-05-20T13:27:30;27.50;56.30
56771;DHT22;42641;59.794;17.616;2023-05-20T13:29:56;27.00;56.80
56771;DHT22;42641;59.794;17.616;2023-05-20T13:32:23;26.40;56.30
56771;DHT22;42641;59.794;17.616;2023-05-20T13:34:49;26.20;55.40
56771;DHT22;42641;59.794;17.616;2023-05-20T13:37:16;25.70;56.00
56771;DHT22;42641;59.794;17.616;2023-05-20T13:39:42;25.20;57.50
56771;DHT22;42641;59.794;17.616;2023-05-20T13:42:09;24.50;54.70
56771;DHT22;42641;59.794;17.616;2023-05-20T13:44:35;23.90;55.40
56771;DHT22;42641;59.794;17.616;2023-05-20T13:47:03;23.50;58.30
56771;DHT22;42641;59.794;17.616;2023-05-20T13:49:30;23.20;56.90
56771;DHT22;42641;59.794;17.616;2023-05-20T13:51:56;22.80;58.30
56771;DHT22;42641;59.794;17.616;2023-05-20T13:54:23;22.80;59.70
56771;DHT22;42641;59.794;17.616;2023-05-20T13:56:51;22.90;61.30
56771;DHT22;42641;59.794;17.616;2023-05-20T13:59:18;23.30;60.90
56771;DHT22;42641;59.794;17.616;2023-05-20T14:01:45;23.50;58.20
56771;DHT22;42641;59.794;17.616;2023-05-20T14:04:12;23.70;56.10
56771;DHT22;42641;59.794;17.616;2023-05-20T14:06:38;23.60;55.20
56771;DHT22;42641;59.794;17.616;2023-05-20T14:09:06;23.60;56.30
56771;DHT22;42641;59.794;17.616;2023-05-20T14:11:34;24.40;57.90
56771;DHT22;42641;59.794;17.616;2023-05-20T14:14:00;25.40;53.70
56771;DHT22;42641;59.794;17.616;2023-05-20T14:16:27;26.10;52.20
56771;DHT22;42641;59.794;17.616;2023-05-20T14:18:53;26.40;49.90
56771;DHT22;42641;59.794;17.616;2023-05-20T14:21:20;26.50;50.70
56771;DHT22;42641;59.794;17.616;2023-05-20T14:23:46;26.40;52.70
56771;DHT22;42641;59.794;17.616;2023-05-20T14:26:12;26.10;51.80
56771;DHT22;42641;59.794;17.616;2023-05-20T14:28:39;26.60;51.80
56771;DHT22;42641;59.794;17.616;2023-05-20T14:31:05;27.40;48.70
56771;DHT22;42641;59.794;17.616;2023-05-20T14:33:35;27.90;45.70
56771;DHT22;42641;59.794;17.616;2023-05-20T14:36:01;28.20;45.90
56771;DHT22;42641;59.794;17.616;2023-05-20T14:38:28;28.20;46.30
56771;DHT22;42641;59.794;17.616;2023-05-20T14:40:54;27.90;48.00
56771;DHT22;42641;59.794;17.616;2023-05-20T14:43:20;27.90;49.00
56771;DHT22;42641;59.794;17.616;2023-05-20T14:45:47;28.30;48.20
56771;DHT22;42641;59.794;17.616;2023-05-20T14:48:14;29.00;48.00
56771;DHT22;42641;59.794;17.616;2023-05-20T14:50:40;30.10;47.50
56771;DHT22;42641;59.794;17.616;2023-05-20T14:53:07;30.60;47.60
56771;DHT22;42641;59.794;17.616;2023-05-20T14:55:33;31.20;47.70
56771;DHT22;42641;59.794;17.616;2023-05-20T14:57:59;31.60;48.70
56771;DHT22;42641;59.794;17.616;2023-05-20T15:00:26;31.70;49.40
56771;DHT22;42641;59.794;17.616;2023-05-20T15:02:52;31.00;46.50
56771;DHT22;42641;59.794;17.616;2023-05-20T15:05:19;31.20;48.70
56771;DHT22;42641;59.794;17.616;2023-05-20T15:07:45;31.70;46.20
56771;DHT22;42641;59.794;17.616;2023-05-20T15:10:12;32.10;45.40
56771;DHT22;42641;59.794;17.616;2023-05-20T15:12:38;31.70;39.20
56771;DHT22;42641;59.794;17.616;2023-05-20T15:15:05;31.50;39.70
56771;DHT22;42641;59.794;17.616;2023-05-20T15:17:32;31.10;41.20
56771;DHT22;42641;59.794;17.616;2023-05-20T15:19:58;31.30;43.50
56771;DHT22;42641;59.794;17.616;2023-05-20T15:22:25;30.90;44.60
56771;DHT22;42641;59.794;17.616;2023-05-20T15:24:51;31.10;48.40
56771;DHT22;42641;59.794;17.616;2023-05-20T15:27:18;31.20;47.80